createdAt,value
2023-05-08T00:00:32.669Z,12.5334
2023-05-08T00:01:35.506Z,12.5350
2023-05-08T00:02:38.529Z,12.5363
2023-05-08T00:03:41.724Z,12.5367
2023-05-08T00:04:44.648Z,12.5378
2023-05-08T00:05:47.469Z,12.5395
2023-05-08T00:06:50.298Z,12.5411
2023-05-08T00:07:53.149Z,12.5402
2023-05-08T00:08:56.035Z,12.5426
2023-05-08T00:09:58.867Z,12.5400
2023-05-08T00:11:01.932Z,12.5367
2023-05-08T00:12:04.759Z,12.5338
2023-05-08T00:13:07.644Z,12.5319
2023-05-08T00:14:10.456Z,12.5282
2023-05-08T00:15:13.289Z,12.5249
2023-05-08T00:16:16.207Z,12.5195
2023-05-08T00:17:19.035Z,12.5145
2023-05-08T00:18:21.884Z,12.5092
2023-05-08T00:19:24.745Z,12.5044
2023-05-08T00:20:27.563Z,12.4997
2023-05-08T00:21:30.378Z,12.4935
2023-05-08T00:22:33.212Z,12.4929
2023-05-08T00:23:36.064Z,12.4903
2023-05-08T00:24:38.894Z,12.4885
2023-05-08T00:25:39.074Z,12.4894
2023-05-08T00:26:41.895Z,12.4914
2023-05-08T00:27:44.753Z,12.4925
2023-05-08T00:28:47.557Z,12.4920
2023-05-08T00:29:50.380Z,12.4906
2023-05-08T00:30:53.415Z,12.4885
2023-05-08T00:31:56.315Z,12.4863
2023-05-08T00:32:59.300Z,12.4836
2023-05-08T00:34:02.437Z,12.4806
2023-05-08T00:35:05.277Z,12.4785
2023-05-08T00:36:08.346Z,12.4762
2023-05-08T00:37:11.165Z,12.4715
2023-05-08T00:38:14.006Z,12.4683
2023-05-08T00:39:16.842Z,12.4665
2023-05-08T00:40:19.699Z,12.4611
2023-05-08T00:41:22.701Z,12.4538
2023-05-08T00:42:25.531Z,12.4463
2023-05-08T00:43:28.549Z,12.4397
2023-05-08T00:44:31.388Z,12.4305
2023-05-08T00:45:34.217Z,12.4223
2023-05-08T00:46:37.125Z,12.4173
2023-05-08T00:47:39.998Z,12.4119
2023-05-08T00:48:42.811Z,12.4077
2023-05-08T00:49:45.653Z,12.4011
2023-05-08T00:50:49.245Z,12.3978
2023-05-08T00:51:52.102Z,12.3942
2023-05-08T00:52:54.926Z,12.3927
2023-05-08T00:53:57.905Z,12.3924
2023-05-08T00:55:00.710Z,12.3920
2023-05-08T00:56:03.863Z,12.3914
2023-05-08T00:57:06.757Z,12.3894
2023-05-08T00:58:09.618Z,12.3834
2023-05-08T00:59:12.480Z,12.3788
2023-05-08T01:00:15.438Z,12.3774
2023-05-08T01:01:18.311Z,12.3732
2023-05-08T01:02:21.147Z,12.3688
2023-05-08T01:03:24.147Z,12.3659
2023-05-08T01:04:27.131Z,12.3644
2023-05-08T01:05:30.006Z,12.3643
2023-05-08T01:06:33.029Z,12.3622
2023-05-08T01:07:35.893Z,12.3614
2023-05-08T01:08:38.797Z,12.3613
2023-05-08T01:09:41.653Z,12.3606
2023-05-08T01:10:44.520Z,12.3635
2023-05-08T01:11:47.402Z,12.3637
2023-05-08T01:12:50.335Z,12.3641
2023-05-08T01:13:53.193Z,12.3638
2023-05-08T01:14:56.072Z,12.3644
2023-05-08T01:15:59.077Z,12.3623
2023-05-08T01:17:01.965Z,12.3577
2023-05-08T01:18:04.932Z,12.3538
2023-05-08T01:19:07.849Z,12.3505
2023-05-08T01:20:10.854Z,12.3490
2023-05-08T01:21:13.781Z,12.3485
2023-05-08T01:22:16.653Z,12.3475
2023-05-08T01:23:19.560Z,12.3471
2023-05-08T01:24:22.705Z,12.3451
2023-05-08T01:25:25.573Z,12.3417
2023-05-08T01:26:28.436Z,12.3388
2023-05-08T01:27:31.288Z,12.3375
2023-05-08T01:28:34.179Z,12.3374
2023-05-08T01:29:37.049Z,12.3370
2023-05-08T01:30:39.902Z,12.3359
2023-05-08T01:31:43.026Z,12.3380
2023-05-08T01:32:45.942Z,12.3426
2023-05-08T01:33:48.791Z,12.3459
2023-05-08T01:34:51.669Z,12.3491
2023-05-08T01:35:54.529Z,12.3479
2023-05-08T01:36:57.427Z,12.3449
2023-05-08T01:38:00.255Z,12.3447
2023-05-08T01:39:03.145Z,12.3425
2023-05-08T01:40:05.984Z,12.3393
2023-05-08T01:41:08.857Z,12.3374
2023-05-08T01:42:11.696Z,12.3350
2023-05-08T01:43:14.590Z,12.3323
2023-05-08T01:44:17.702Z,12.3294
2023-05-08T01:45:20.598Z,12.3257
2023-05-08T01:46:23.480Z,12.3220
2023-05-08T01:47:26.344Z,12.3215
2023-05-08T01:48:29.227Z,12.3198
2023-05-08T01:49:32.100Z,12.3175
2023-05-08T01:50:35.031Z,12.3147
2023-05-08T01:51:38.121Z,12.3123
2023-05-08T01:52:40.992Z,12.3100
2023-05-08T01:53:44.112Z,12.3059
2023-05-08T01:54:46.964Z,12.3026
2023-05-08T01:55:49.876Z,12.3007
2023-05-08T01:56:52.992Z,12.2984
2023-05-08T01:57:55.869Z,12.2949
2023-05-08T01:58:58.758Z,12.2918
2023-05-08T02:00:01.689Z,12.2880
2023-05-08T02:01:04.596Z,12.2868
2023-05-08T02:02:07.511Z,12.2840
2023-05-08T02:03:11.128Z,12.2816
2023-05-08T02:04:14.039Z,12.2767
2023-05-08T02:05:25.590Z,12.2723
2023-05-08T02:06:25.721Z,12.2669
2023-05-08T02:07:28.567Z,12.2639
2023-05-08T02:08:31.399Z,12.2598
2023-05-08T02:09:34.300Z,12.2555
2023-05-08T02:10:37.141Z,12.2517
2023-05-08T02:11:40.002Z,12.2480
2023-05-08T02:12:42.940Z,12.2426
2023-05-08T02:13:45.815Z,12.2388
2023-05-08T02:14:48.691Z,12.2374
2023-05-08T02:15:51.571Z,12.2381
2023-05-08T02:16:52.434Z,12.2361
2023-05-08T02:17:55.463Z,12.2349
2023-05-08T02:18:58.361Z,12.2355
2023-05-08T02:20:01.219Z,12.2362
2023-05-08T02:21:04.097Z,12.2371
2023-05-08T02:22:06.983Z,12.2380
2023-05-08T02:23:09.821Z,12.2402
2023-05-08T02:24:12.684Z,12.2414
2023-05-08T02:25:15.560Z,12.2430
2023-05-08T02:26:18.419Z,12.2438
2023-05-08T02:27:21.285Z,12.2447
2023-05-08T02:28:24.162Z,12.2467
2023-05-08T02:29:27.028Z,12.2482
2023-05-08T02:30:29.936Z,12.2502
2023-05-08T02:31:33.101Z,12.2521
2023-05-08T02:32:35.975Z,12.2510
2023-05-08T02:33:38.826Z,12.2517
2023-05-08T02:34:51.231Z,12.2521
2023-05-08T02:35:43.125Z,12.2523
2023-05-08T02:36:46.219Z,12.2529
2023-05-08T02:37:49.094Z,12.2540
2023-05-08T02:38:51.927Z,12.2547
2023-05-08T02:39:54.779Z,12.2557
2023-05-08T02:40:57.717Z,12.2580
2023-05-08T02:42:00.558Z,12.2612
2023-05-08T02:43:03.454Z,12.2641
2023-05-08T02:44:06.351Z,12.2655
2023-05-08T02:45:09.233Z,12.2663
2023-05-08T02:46:12.164Z,12.2675
2023-05-08T02:47:15.118Z,12.2689
2023-05-08T02:48:18.006Z,12.2684
2023-05-08T02:49:20.871Z,12.2688
2023-05-08T02:50:23.762Z,12.2676
2023-05-08T02:51:26.865Z,12.2686
2023-05-08T02:52:29.757Z,12.2704
2023-05-08T02:53:32.665Z,12.2724
2023-05-08T02:54:35.517Z,12.2753
2023-05-08T02:55:38.379Z,12.2770
2023-05-08T02:56:41.228Z,12.2786
2023-05-08T02:57:44.100Z,12.2788
2023-05-08T02:58:46.965Z,12.2799
2023-05-08T02:59:49.814Z,12.2792
2023-05-08T03:00:52.693Z,12.2792
2023-05-08T03:01:55.742Z,12.2815
2023-05-08T03:02:58.682Z,12.2855
2023-05-08T03:04:01.567Z,12.2904
2023-05-08T03:05:04.437Z,12.2957
2023-05-08T03:06:07.374Z,12.2968
2023-05-08T03:07:10.286Z,12.2985
2023-05-08T03:08:13.111Z,12.3011
2023-05-08T03:09:16.001Z,12.3035
2023-05-08T03:10:18.870Z,12.3062
2023-05-08T03:11:21.742Z,12.3096
2023-05-08T03:12:24.611Z,12.3145
2023-05-08T03:13:27.523Z,12.3162
2023-05-08T03:14:30.514Z,12.3165
2023-05-08T03:15:33.384Z,12.3182
2023-05-08T03:16:36.253Z,12.3184
2023-05-08T03:17:39.180Z,12.3216
2023-05-08T03:18:42.099Z,12.3249
2023-05-08T03:19:44.963Z,12.3269
2023-05-08T03:20:47.873Z,12.3307
2023-05-08T03:21:50.694Z,12.3353
2023-05-08T03:22:53.568Z,12.3371
2023-05-08T03:23:56.452Z,12.3391
2023-05-08T03:24:59.348Z,12.3441
2023-05-08T03:26:02.194Z,12.3498
2023-05-08T03:27:02.931Z,12.3540
2023-05-08T03:28:05.793Z,12.3575
2023-05-08T03:29:08.702Z,12.3619
2023-05-08T03:30:11.689Z,12.3643
2023-05-08T03:31:14.656Z,12.3662
2023-05-08T03:32:17.505Z,12.3673
2023-05-08T03:33:20.419Z,12.3677
2023-05-08T03:34:23.294Z,12.3703
2023-05-08T03:35:26.130Z,12.3713
2023-05-08T03:36:29.010Z,12.3753
2023-05-08T03:37:31.860Z,12.3779
2023-05-08T03:38:34.739Z,12.3836
2023-05-08T03:39:37.611Z,12.3878
2023-05-08T03:40:40.457Z,12.3910
2023-05-08T03:41:43.583Z,12.3939
2023-05-08T03:42:46.467Z,12.3956
2023-05-08T03:43:49.340Z,12.3958
2023-05-08T03:44:52.191Z,12.3953
2023-05-08T03:45:55.082Z,12.3941
2023-05-08T03:46:57.992Z,12.3941
2023-05-08T03:48:00.885Z,12.3955
2023-05-08T03:49:03.785Z,12.3958
2023-05-08T03:50:06.617Z,12.3969
2023-05-08T03:51:09.506Z,12.3979
2023-05-08T03:52:12.637Z,12.3979
2023-05-08T03:53:15.539Z,12.3982
2023-05-08T03:54:18.409Z,12.3988
2023-05-08T03:55:21.273Z,12.3983
2023-05-08T03:56:25.909Z,12.3982
2023-05-08T03:57:25.576Z,12.3978
2023-05-08T03:58:28.419Z,12.3972
2023-05-08T03:59:31.274Z,12.3983
2023-05-08T04:00:34.179Z,12.4003
2023-05-08T04:01:37.074Z,12.4028
2023-05-08T04:02:42.107Z,12.4059
2023-05-08T04:03:41.624Z,12.4084
2023-05-08T04:04:44.690Z,12.4105
2023-05-08T04:05:47.584Z,12.4116
2023-05-08T04:06:51.104Z,12.4134
2023-05-08T04:07:50.503Z,12.4154
2023-05-08T04:08:53.376Z,12.4180
2023-05-08T04:09:54.776Z,12.4195
2023-05-08T04:10:57.641Z,12.4191
2023-05-08T04:12:00.537Z,12.4225
2023-05-08T04:13:03.467Z,12.4270
2023-05-08T04:14:06.344Z,12.4298
2023-05-08T04:15:09.202Z,12.4329
2023-05-08T04:16:12.102Z,12.4347
2023-05-08T04:17:15.054Z,12.4380
2023-05-08T04:18:17.898Z,12.4429
2023-05-08T04:19:20.907Z,12.4481
2023-05-08T04:20:24.035Z,12.4527
2023-05-08T04:21:26.970Z,12.4574
2023-05-08T04:22:29.828Z,12.4598
2023-05-08T04:23:32.686Z,12.4612
2023-05-08T04:24:35.541Z,12.4640
2023-05-08T04:25:38.418Z,12.4668
2023-05-08T04:26:41.344Z,12.4690
2023-05-08T04:27:44.356Z,12.4741
2023-05-08T04:28:47.325Z,12.4792
2023-05-08T04:29:50.249Z,12.4853
2023-05-08T04:30:53.143Z,12.4918
2023-05-08T04:31:56.031Z,12.4982
2023-05-08T04:32:58.954Z,12.5039
2023-05-08T04:34:01.818Z,12.5095
2023-05-08T04:35:02.594Z,12.5163
2023-05-08T04:36:05.464Z,12.5231
2023-05-08T04:37:06.210Z,12.5290
2023-05-08T04:38:09.120Z,12.5335
2023-05-08T04:39:12.033Z,12.5366
2023-05-08T04:40:14.914Z,12.5382
2023-05-08T04:41:17.792Z,12.5412
2023-05-08T04:42:20.648Z,12.5460
2023-05-08T04:43:23.563Z,12.5505
2023-05-08T04:44:26.447Z,12.5555
2023-05-08T04:45:29.373Z,12.5628
2023-05-08T04:46:32.262Z,12.5699
2023-05-08T04:47:35.263Z,12.5764
2023-05-08T04:48:38.125Z,12.5821
2023-05-08T04:49:41.007Z,12.5884
2023-05-08T04:50:43.912Z,12.5969
2023-05-08T04:51:46.806Z,12.6059
2023-05-08T04:52:49.908Z,12.6161
2023-05-08T04:53:52.806Z,12.6268
2023-05-08T04:54:55.691Z,12.6368
2023-05-08T04:55:58.608Z,12.6455
2023-05-08T04:57:01.459Z,12.6564
2023-05-08T04:58:04.484Z,12.6679
2023-05-08T04:59:07.329Z,12.6755
2023-05-08T05:00:10.223Z,12.6804
2023-05-08T05:01:13.141Z,12.6832
2023-05-08T05:02:13.870Z,12.6873
2023-05-08T05:03:16.813Z,12.6914
2023-05-08T05:04:19.715Z,12.6960
2023-05-08T05:05:22.631Z,12.7010
2023-05-08T05:06:25.498Z,12.7064
2023-05-08T05:07:28.385Z,12.7106
2023-05-08T05:08:31.237Z,12.7128
2023-05-08T05:09:34.107Z,12.7161
2023-05-08T05:10:37.187Z,12.7210
2023-05-08T05:11:40.069Z,12.7275
2023-05-08T05:12:43.240Z,12.7364
2023-05-08T05:13:46.076Z,12.7446
2023-05-08T05:14:48.998Z,12.7541
2023-05-08T05:15:51.874Z,12.7642
2023-05-08T05:16:54.709Z,12.7761
2023-05-08T05:17:57.623Z,12.7851
2023-05-08T05:19:00.505Z,12.7933
2023-05-08T05:20:03.394Z,12.8047
2023-05-08T05:21:06.272Z,12.8140
2023-05-08T05:22:09.171Z,12.8223
2023-05-08T05:23:12.014Z,12.8302
2023-05-08T05:24:14.981Z,12.8378
2023-05-08T05:25:17.873Z,12.8446
2023-05-08T05:26:20.705Z,12.8531
2023-05-08T05:27:24.087Z,12.8619
2023-05-08T05:28:26.977Z,12.8711
2023-05-08T05:29:29.907Z,12.8806
2023-05-08T05:30:32.798Z,12.8878
2023-05-08T05:31:35.765Z,12.8969
2023-05-08T05:32:38.620Z,12.9111
2023-05-08T05:33:41.489Z,12.9273
2023-05-08T05:34:44.412Z,12.9452
2023-05-08T05:35:47.266Z,12.9626
2023-05-08T05:36:50.105Z,12.9793
2023-05-08T05:37:53.298Z,12.9995
2023-05-08T05:38:56.157Z,13.0173
2023-05-08T05:39:56.858Z,13.0320
2023-05-08T05:40:59.713Z,13.0464
2023-05-08T05:42:03.241Z,13.0613
2023-05-08T05:43:06.073Z,13.0746
2023-05-08T05:44:08.958Z,13.0903
2023-05-08T05:45:11.970Z,13.1114
2023-05-08T05:46:14.926Z,13.1319
2023-05-08T05:47:18.247Z,13.1461
2023-05-08T05:48:28.885Z,13.1635
2023-05-08T05:49:31.750Z,13.1786
2023-05-08T05:50:34.621Z,13.1962
2023-05-08T05:51:37.494Z,13.2144
2023-05-08T05:52:40.387Z,13.2325
2023-05-08T05:53:43.298Z,13.2507
2023-05-08T05:54:46.167Z,13.2694
2023-05-08T05:55:49.279Z,13.2889
2023-05-08T05:56:52.160Z,13.3066
2023-05-08T05:57:55.290Z,13.3267
2023-05-08T05:58:58.170Z,13.3425
2023-05-08T06:00:01.047Z,13.3577
2023-05-08T06:01:03.915Z,13.3765
2023-05-08T06:02:06.860Z,13.3965
2023-05-08T06:03:09.884Z,13.4165
2023-05-08T06:04:12.771Z,13.4359
2023-05-08T06:05:15.641Z,13.4495
2023-05-08T06:06:18.528Z,13.4585
2023-05-08T06:07:21.415Z,13.4656
2023-05-08T06:08:24.267Z,13.4727
2023-05-08T06:09:27.137Z,13.4769
2023-05-08T06:10:30.020Z,13.4764
2023-05-08T06:11:32.906Z,13.4755
2023-05-08T06:12:35.796Z,13.4740
2023-05-08T06:13:38.634Z,13.4740
2023-05-08T06:14:41.497Z,13.4721
2023-05-08T06:15:44.394Z,13.4702
2023-05-08T06:16:47.304Z,13.4703
2023-05-08T06:17:50.180Z,13.4704
2023-05-08T06:18:53.028Z,13.4747
2023-05-08T06:19:55.911Z,13.4822
2023-05-08T06:20:58.911Z,13.4907
2023-05-08T06:22:01.788Z,13.4989
2023-05-08T06:23:04.666Z,13.5068
2023-05-08T06:24:07.530Z,13.5141
2023-05-08T06:25:10.562Z,13.5208
2023-05-08T06:26:13.482Z,13.5269
2023-05-08T06:27:16.363Z,13.5370
2023-05-08T06:28:19.471Z,13.5478
2023-05-08T06:29:22.337Z,13.5593
2023-05-08T06:30:25.193Z,13.5707
2023-05-08T06:31:28.091Z,13.5848
2023-05-08T06:32:30.936Z,13.6032
2023-05-08T06:33:33.845Z,13.6180
2023-05-08T06:34:36.713Z,13.6316
2023-05-08T06:35:39.566Z,13.6437
2023-05-08T06:36:42.438Z,13.6558
2023-05-08T06:37:45.311Z,13.6661
2023-05-08T06:38:48.198Z,13.6756
2023-05-08T06:40:00.317Z,13.6820
2023-05-08T06:40:52.552Z,13.6845
2023-05-08T06:41:55.430Z,13.6896
2023-05-08T06:42:58.310Z,13.6955
2023-05-08T06:44:01.210Z,13.6993
2023-05-08T06:45:04.098Z,13.7025
2023-05-08T06:46:06.968Z,13.7003
2023-05-08T06:47:09.872Z,13.7011
2023-05-08T06:48:12.740Z,13.7023
2023-05-08T06:49:15.609Z,13.7058
2023-05-08T06:50:18.471Z,13.7083
2023-05-08T06:51:21.348Z,13.7110
2023-05-08T06:52:24.218Z,13.7120
2023-05-08T06:53:27.092Z,13.7103
2023-05-08T06:54:29.948Z,13.7140
2023-05-08T06:55:32.832Z,13.7201
2023-05-08T06:56:35.715Z,13.7258
2023-05-08T06:57:38.585Z,13.7298
2023-05-08T06:58:41.456Z,13.7294
2023-05-08T06:59:44.356Z,13.7291
2023-05-08T07:00:47.202Z,13.7307
2023-05-08T07:01:50.088Z,13.7324
2023-05-08T07:02:53.101Z,13.7365
2023-05-08T07:03:56.006Z,13.7427
2023-05-08T07:04:58.941Z,13.7577
2023-05-08T07:06:01.868Z,13.7779
2023-05-08T07:07:04.734Z,13.8029
2023-05-08T07:08:07.674Z,13.8360
2023-05-08T07:09:10.552Z,13.8742
2023-05-08T07:10:13.434Z,13.9176
2023-05-08T07:11:16.536Z,13.9699
2023-05-08T07:12:19.407Z,14.0203
2023-05-08T07:13:20.196Z,14.0693
2023-05-08T07:14:23.105Z,14.1243
2023-05-08T07:15:26.935Z,14.1817
2023-05-08T07:16:26.366Z,14.2422
2023-05-08T07:17:29.236Z,14.3073
2023-05-08T07:18:32.066Z,14.3730
2023-05-08T07:19:34.921Z,14.4477
2023-05-08T07:20:37.830Z,14.5223
2023-05-08T07:21:40.777Z,14.6002
2023-05-08T07:22:43.623Z,14.6796
2023-05-08T07:23:46.528Z,14.7495
2023-05-08T07:24:49.399Z,14.8185
2023-05-08T07:25:52.250Z,14.8808
2023-05-08T07:26:55.151Z,14.9459
2023-05-08T07:28:01.023Z,15.0116
2023-05-08T07:29:00.525Z,15.0786
2023-05-08T07:30:03.384Z,15.1409
2023-05-08T07:31:06.259Z,15.1999
2023-05-08T07:32:09.120Z,15.2631
2023-05-08T07:33:12.068Z,15.3122
2023-05-08T07:34:14.952Z,15.3375
2023-05-08T07:35:17.890Z,15.3539
2023-05-08T07:36:20.744Z,15.3698
2023-05-08T07:37:23.622Z,15.3789
2023-05-08T07:38:26.532Z,15.3872
2023-05-08T07:39:29.437Z,15.3939
2023-05-08T07:40:32.312Z,15.4031
2023-05-08T07:41:35.285Z,15.4123
2023-05-08T07:42:38.165Z,15.4318
2023-05-08T07:43:41.082Z,15.4603
2023-05-08T07:44:53.593Z,15.4997
2023-05-08T07:45:45.449Z,15.5508
2023-05-08T07:46:48.386Z,15.6078
2023-05-08T07:47:51.329Z,15.6650
2023-05-08T07:48:54.258Z,15.7265
2023-05-08T07:49:57.164Z,15.7976
2023-05-08T07:51:00.184Z,15.8705
2023-05-08T07:52:03.072Z,15.9400
2023-05-08T07:53:05.985Z,16.0035
2023-05-08T07:54:08.904Z,16.0693
2023-05-08T07:55:12.038Z,16.1317
2023-05-08T07:56:13.182Z,16.1975
2023-05-08T07:57:16.127Z,16.2722
2023-05-08T07:58:19.038Z,16.3438
2023-05-08T07:59:21.950Z,16.4093
2023-05-08T08:00:24.860Z,16.4619
2023-05-08T08:01:27.799Z,16.5141
2023-05-08T08:02:30.847Z,16.5833
2023-05-08T08:03:34.050Z,16.6489
2023-05-08T08:04:37.154Z,16.7164
2023-05-08T08:05:40.086Z,16.7715
2023-05-08T08:06:43.033Z,16.8163
2023-05-08T08:07:45.910Z,16.8632
2023-05-08T08:08:48.831Z,16.9099
2023-05-08T08:09:51.698Z,16.9494
2023-05-08T08:10:54.612Z,17.0075
2023-05-08T08:11:57.497Z,17.0867
2023-05-08T08:13:00.433Z,17.1715
2023-05-08T08:14:03.304Z,17.2702
2023-05-08T08:15:06.207Z,17.3666
2023-05-08T08:16:09.145Z,17.4672
2023-05-08T08:17:12.174Z,17.5883
2023-05-08T08:18:15.389Z,17.7179
2023-05-08T08:19:18.335Z,17.8439
2023-05-08T08:20:21.219Z,17.9676
2023-05-08T08:21:24.139Z,18.0864
2023-05-08T08:22:27.047Z,18.2100
2023-05-08T08:23:30.273Z,18.3473
2023-05-08T08:24:33.159Z,18.4910
2023-05-08T08:25:36.332Z,18.6453
2023-05-08T08:26:39.237Z,18.8059
2023-05-08T08:27:42.121Z,18.9882
2023-05-08T08:28:45.067Z,19.1539
2023-05-08T08:29:47.984Z,19.2944
2023-05-08T08:30:50.926Z,19.4104
2023-05-08T08:31:53.843Z,19.5263
2023-05-08T08:32:56.744Z,19.6388
2023-05-08T08:33:59.640Z,19.7444
2023-05-08T08:35:02.567Z,19.8341
2023-05-08T08:36:05.454Z,19.9222
2023-05-08T08:37:08.363Z,20.0105
2023-05-08T08:38:11.281Z,20.0904
2023-05-08T08:39:15.422Z,20.1770
2023-05-08T08:40:14.651Z,20.2527
2023-05-08T08:41:17.577Z,20.3327
2023-05-08T08:42:20.465Z,20.4186
2023-05-08T08:43:23.382Z,20.4999
2023-05-08T08:44:26.333Z,20.5826
2023-05-08T08:45:29.212Z,20.6956
2023-05-08T08:46:32.142Z,20.8199
2023-05-08T08:47:35.094Z,20.9505
2023-05-08T08:48:38.006Z,21.0943
2023-05-08T08:49:40.892Z,21.2760
2023-05-08T08:50:43.873Z,21.4755
2023-05-08T08:51:46.737Z,21.6589
2023-05-08T08:52:49.639Z,21.8318
2023-05-08T08:53:52.018Z,22.0019
2023-05-08T08:54:54.920Z,22.1810
2023-05-08T08:55:57.834Z,22.3299
2023-05-08T08:57:00.747Z,22.4723
2023-05-08T08:58:03.659Z,22.6225
2023-05-08T08:59:06.590Z,22.7672
2023-05-08T09:00:09.558Z,22.8667
2023-05-08T09:01:12.490Z,22.9380
2023-05-08T09:02:15.483Z,22.9936
2023-05-08T09:03:18.459Z,23.0363
2023-05-08T09:04:21.470Z,23.0584
2023-05-08T09:05:24.342Z,23.0427
2023-05-08T09:06:27.285Z,23.0145
2023-05-08T09:07:30.127Z,22.9999
2023-05-08T09:08:33.007Z,22.9916
2023-05-08T09:09:35.984Z,22.9674
2023-05-08T09:10:38.844Z,22.9612
2023-05-08T09:11:41.745Z,22.9832
2023-05-08T09:12:44.647Z,22.9974
2023-05-08T09:13:47.531Z,23.0174
2023-05-08T09:14:50.449Z,23.0401
2023-05-08T09:15:53.390Z,23.0797
2023-05-08T09:16:56.303Z,23.1099
2023-05-08T09:17:59.213Z,23.1144
2023-05-08T09:19:03.342Z,23.1211
2023-05-08T09:20:03.040Z,23.1554
2023-05-08T09:21:05.982Z,23.2195
2023-05-08T09:22:08.941Z,23.2941
2023-05-08T09:23:11.798Z,23.3685
2023-05-08T09:24:14.710Z,23.4528
2023-05-08T09:25:17.638Z,23.5515
2023-05-08T09:26:20.535Z,23.6474
2023-05-08T09:27:23.455Z,23.7467
2023-05-08T09:28:26.601Z,23.8603
2023-05-08T09:29:29.550Z,23.9704
2023-05-08T09:30:32.470Z,24.0649
2023-05-08T09:31:35.394Z,24.1420
2023-05-08T09:32:38.319Z,24.1722
2023-05-08T09:33:41.185Z,24.1091
2023-05-08T09:34:44.100Z,24.0221
2023-05-08T09:35:47.009Z,23.9902
2023-05-08T09:36:50.042Z,23.9688
2023-05-08T09:37:53.305Z,23.9836
2023-05-08T09:38:53.426Z,24.0266
2023-05-08T09:39:56.410Z,24.0560
2023-05-08T09:40:59.287Z,24.0289
2023-05-08T09:42:02.184Z,23.9334
2023-05-08T09:43:05.166Z,23.8364
2023-05-08T09:44:08.030Z,23.7222
2023-05-08T09:45:11.222Z,23.5996
2023-05-08T09:46:14.356Z,23.4562
2023-05-08T09:47:17.264Z,23.2998
2023-05-08T09:48:20.153Z,23.1725
2023-05-08T09:49:23.070Z,23.0426
2023-05-08T09:50:26.016Z,22.9536
2023-05-08T09:51:26.802Z,22.9431
2023-05-08T09:52:29.725Z,22.8294
2023-05-08T09:53:32.916Z,22.6591
2023-05-08T09:54:35.852Z,22.5408
2023-05-08T09:55:38.754Z,22.5653
2023-05-08T09:56:41.662Z,22.7122
2023-05-08T09:57:44.557Z,23.0345
2023-05-08T09:58:47.479Z,23.3203
2023-05-08T09:59:50.387Z,23.5486
2023-05-08T10:00:53.342Z,23.7532
2023-05-08T10:01:56.237Z,23.9016
2023-05-08T10:02:59.324Z,23.9861
2023-05-08T10:04:02.496Z,24.1048
2023-05-08T10:05:05.428Z,24.3347
2023-05-08T10:06:08.307Z,24.6405
2023-05-08T10:07:11.211Z,25.0233
2023-05-08T10:08:14.104Z,25.2715
2023-05-08T10:09:17.042Z,25.4680
2023-05-08T10:10:19.924Z,25.5152
2023-05-08T10:11:22.842Z,25.3551
2023-05-08T10:12:25.810Z,25.2332
2023-05-08T10:13:28.717Z,25.2898
2023-05-08T10:14:31.607Z,25.6251
2023-05-08T10:15:34.523Z,26.0333
2023-05-08T10:16:37.432Z,26.3339
2023-05-08T10:17:40.373Z,26.5720
2023-05-08T10:18:43.298Z,26.6870
2023-05-08T10:19:46.235Z,26.7396
2023-05-08T10:20:49.133Z,26.7942
2023-05-08T10:21:52.020Z,26.8191
2023-05-08T10:22:54.913Z,26.8210
2023-05-08T10:23:57.878Z,26.8468
2023-05-08T10:25:00.830Z,27.0668
2023-05-08T10:26:03.819Z,27.2779
2023-05-08T10:27:07.755Z,27.3033
2023-05-08T10:28:07.183Z,27.1127
2023-05-08T10:29:10.143Z,26.9637
2023-05-08T10:30:13.240Z,26.8223
2023-05-08T10:31:16.698Z,26.7392
2023-05-08T10:32:19.630Z,26.6877
2023-05-08T10:33:22.516Z,26.6139
2023-05-08T10:34:25.389Z,26.5284
2023-05-08T10:35:28.389Z,26.4564
2023-05-08T10:36:31.302Z,26.4160
2023-05-08T10:37:34.213Z,26.3093
2023-05-08T10:38:37.274Z,26.2111
2023-05-08T10:39:40.155Z,26.1734
2023-05-08T10:40:43.088Z,26.1810
2023-05-08T10:41:45.948Z,26.2276
2023-05-08T10:42:48.853Z,26.2269
2023-05-08T10:43:51.728Z,26.2481
2023-05-08T10:44:54.653Z,26.2584
2023-05-08T10:45:57.587Z,26.2370
2023-05-08T10:47:00.487Z,26.2977
2023-05-08T10:48:03.482Z,26.3409
2023-05-08T10:49:06.435Z,26.4031
2023-05-08T10:50:09.356Z,26.5496
2023-05-08T10:51:12.351Z,26.8341
2023-05-08T10:52:15.260Z,27.3431
2023-05-08T10:53:18.211Z,27.9725
2023-05-08T10:54:21.128Z,28.6179
2023-05-08T10:55:24.088Z,29.1154
2023-05-08T10:56:27.048Z,29.4533
2023-05-08T10:57:29.987Z,29.6897
2023-05-08T10:58:32.875Z,29.8078
2023-05-08T10:59:35.817Z,29.7615
2023-05-08T11:00:38.716Z,29.6421
2023-05-08T11:01:41.639Z,29.4713
2023-05-08T11:02:44.586Z,29.3118
2023-05-08T11:03:47.585Z,29.1233
2023-05-08T11:04:50.535Z,28.8182
2023-05-08T11:05:53.483Z,28.6035
2023-05-08T11:06:56.372Z,28.4644
2023-05-08T11:07:59.369Z,28.3187
2023-05-08T11:09:02.262Z,28.2262
2023-05-08T11:10:05.155Z,28.1724
2023-05-08T11:11:08.089Z,28.0783
2023-05-08T11:12:10.979Z,28.0546
2023-05-08T11:13:13.919Z,28.1552
2023-05-08T11:14:16.831Z,28.1866
2023-05-08T11:15:19.767Z,28.1369
2023-05-08T11:16:22.765Z,28.1028
2023-05-08T11:17:25.680Z,28.0491
2023-05-08T11:18:41.786Z,27.8357
2023-05-08T11:19:30.230Z,27.5558
2023-05-08T11:20:33.111Z,27.3403
2023-05-08T11:21:36.046Z,27.0900
2023-05-08T11:22:38.952Z,26.7142
2023-05-08T11:23:41.909Z,26.3718
2023-05-08T11:24:44.766Z,26.0011
2023-05-08T11:25:47.690Z,25.7937
2023-05-08T11:26:50.617Z,25.6471
2023-05-08T11:27:53.535Z,25.5094
2023-05-08T11:28:56.492Z,25.3787
2023-05-08T11:29:59.397Z,25.2920
2023-05-08T11:31:02.335Z,25.2377
2023-05-08T11:32:05.386Z,25.1930
2023-05-08T11:33:08.461Z,25.1545
2023-05-08T11:34:11.397Z,25.1169
2023-05-08T11:35:14.317Z,25.1004
2023-05-08T11:36:17.267Z,25.1182
2023-05-08T11:37:20.245Z,25.1283
2023-05-08T11:38:23.163Z,25.1068
2023-05-08T11:39:26.054Z,25.1008
2023-05-08T11:40:28.969Z,25.0765
2023-05-08T11:41:32.250Z,25.0767
2023-05-08T11:42:35.225Z,25.1096
2023-05-08T11:43:38.168Z,25.1646
2023-05-08T11:44:41.090Z,25.2357
2023-05-08T11:45:44.008Z,25.3808
2023-05-08T11:46:46.964Z,25.5710
2023-05-08T11:47:49.899Z,25.7773
2023-05-08T11:48:52.798Z,25.9839
2023-05-08T11:49:55.715Z,26.1657
2023-05-08T11:50:58.601Z,26.3044
2023-05-08T11:52:01.510Z,26.3563
2023-05-08T11:53:04.400Z,26.3084
2023-05-08T11:54:07.344Z,26.0860
2023-05-08T11:55:10.223Z,25.8679
2023-05-08T11:56:13.176Z,25.7263
2023-05-08T11:57:16.097Z,25.5003
2023-05-08T11:58:19.033Z,25.2912
2023-05-08T11:59:22.156Z,25.2396
2023-05-08T12:00:25.077Z,25.2686
2023-05-08T12:01:28.000Z,25.3276
2023-05-08T12:02:33.351Z,25.4451
2023-05-08T12:03:33.351Z,25.6170
2023-05-08T12:04:36.377Z,25.7800
2023-05-08T12:05:39.331Z,25.9292
2023-05-08T12:06:40.102Z,26.0937
2023-05-08T12:07:43.052Z,26.2624
2023-05-08T12:08:45.938Z,26.3920
2023-05-08T12:09:48.865Z,26.4126
2023-05-08T12:10:51.766Z,26.4192
2023-05-08T12:11:54.664Z,26.4799
2023-05-08T12:12:57.579Z,26.5449
2023-05-08T12:14:00.489Z,26.6167
2023-05-08T12:15:03.393Z,26.7299
2023-05-08T12:16:06.312Z,26.7485
2023-05-08T12:17:09.272Z,26.7427
2023-05-08T12:18:12.160Z,26.8118
2023-05-08T12:19:15.325Z,26.9201
2023-05-08T12:20:18.404Z,27.0838
2023-05-08T12:21:21.618Z,27.3932
2023-05-08T12:22:24.548Z,27.9071
2023-05-08T12:23:27.456Z,28.4649
2023-05-08T12:24:30.353Z,28.9446
2023-05-08T12:25:33.232Z,29.1631
2023-05-08T12:26:36.207Z,29.2358
2023-05-08T12:27:39.125Z,29.3480
2023-05-08T12:28:42.020Z,29.7083
2023-05-08T12:29:44.953Z,30.1545
2023-05-08T12:30:47.879Z,30.5520
2023-05-08T12:31:50.759Z,30.8306
2023-05-08T12:32:53.701Z,31.1288
2023-05-08T12:33:56.578Z,31.4666
2023-05-08T12:34:59.504Z,31.8406
2023-05-08T12:36:02.410Z,32.3214
2023-05-08T12:37:05.377Z,32.8000
2023-05-08T12:38:08.304Z,33.2341
2023-05-08T12:39:11.221Z,33.5821
2023-05-08T12:40:14.344Z,33.5483